Meteo Giornale » Osservazioni meteo Italia » Messina

ore: 15:55 - Osservazioni Meteo Messina
Lat. 38° 12' N Lon. 15° 33' E Alt. 59 metri s.l.m.

sereno Europe/Rome

22 °C

Sereno

Temp. 24 Ore

16 °C

23 °C

Nord-Est

13 Km/h

Dew point 11 °C

Umidità 49 %

Visibilità  10 Km

Il sole sorge alle ore 06:06

Il sole tramonta alle ore 19:44

Data e Ora Cielo e Fenomeni T °C DP °C Um. % Pres. hPa Vis. km Vento km/h
Oggi h: 15:55 sereno Sereno 22 11 49 1016 10 NE 13
Oggi h: 14:55 sereno Sereno 22 11 49 1017 10 E/NE 13
Oggi h: 13:55 sereno Sereno 22 11 49 1017 10 NE 16.7
Oggi h: 12:55 sereno Sereno 21 13 60 1018 10 NE 11.1
Oggi h: 11:55 sereno Sereno 22 14 60 1018 10 NE 13
Oggi h: 10:55 sereno Sereno 23 11 46 1018 10 NE 16.7
Oggi h: 09:55 sereno Sereno 22 9 43 1018 10 NE 11.1
Oggi h: 08:55 sereno Sereno 20 13 64 1018 10 NE 7.4
Oggi h: 07:55 poco_nuvoloso Poco Nuvoloso 19 13 68 1017 10 N 5.5
Oggi h: 06:55 poco_nuvoloso Poco Nuvoloso 16 5 47 1018 10 N 7.4
Oggi h: 05:55 sereno Sereno 16 10 67 1018 10 N 5.5
Oggi h: 03:55 sereno Sereno 17 15 88 1018 10 N 5.5
Oggi h: 02:55 sereno Sereno 17 16 93 1018 10 NE 7.4
Oggi h: 01:55 sereno Sereno 17 15 88 1018 10 N/NE 7.4
Oggi h: 00:55 sereno Sereno 17 15 88 1018 10 N 7.4
Ieri h: 23:55 sereno Sereno 18 14 77 1018 10 N 5.5
Ieri h: 22:55 sereno Sereno 19 8 48 1018 10 N 1.8
Ieri h: 21:55 sereno Sereno 19 9 52 1019 10 N 5.5
Ieri h: 20:55 sereno Sereno 20 9 49 1018 10 N/NO 9.3
Ieri h: 19:55 sereno Sereno 20 12 59 1018 10 N/NE 7.4
Ieri h: 18:55 sereno Sereno 20 15 72 1019 10 NE 11.1